Time;durP1;ratioP1;P1;durP2;ratioP2;P2;SDS_P1;SDS_P2;PMS_P1;PMS_P2;Temp;Humidity;BMP_temperature;BMP_pressure;BME280_temperature;BME280_humidity;BME280_pressure;Samples;Min_cycle;Max_cycle;Signal;HPM_P1;HPM_P2
2022/09/29 00:01:50;;;;;;;5.30;4.05;;;6.50;99.90;;;;;;4936562;29;20043;-84
2022/09/29 00:04:15;;;;;;;6.60;4.65;;;6.50;99.90;;;;;;4936532;29;20071;-83
2022/09/29 00:06:41;;;;;;;7.28;4.60;;;6.50;99.90;;;;;;4936453;29;20083;-84
2022/09/29 00:09:06;;;;;;;6.78;4.80;;;6.50;99.90;;;;;;4936756;29;20049;-83
2022/09/29 00:11:32;;;;;;;5.47;4.50;;;6.50;99.90;;;;;;4919141;29;20052;-83
2022/09/29 00:13:58;;;;;;;7.03;5.20;;;6.50;99.90;;;;;;4919533;29;20523;-83
2022/09/29 00:16:23;;;;;;;6.05;4.68;;;6.60;99.90;;;;;;4919010;29;20056;-84
2022/09/29 00:18:49;;;;;;;9.15;5.00;;;6.60;99.90;;;;;;4936413;29;20044;-84
2022/09/29 00:21:20;;;;;;;5.43;4.63;;;6.70;99.90;;;;;;4919454;29;20440;-84
2022/09/29 00:23:47;;;;;;;7.50;5.13;;;6.70;99.90;;;;;;4919099;29;20369;-83
2022/09/29 00:26:15;;;;;;;5.63;4.53;;;6.70;99.90;;;;;;4919372;29;20567;-83
2022/09/29 00:28:51;;;;;;;6.57;4.35;;;6.70;99.90;;;;;;4919086;29;20102;-84
2022/09/29 00:31:17;;;;;;;7.43;5.03;;;6.70;99.90;;;;;;4919278;29;20051;-84
2022/09/29 00:33:44;;;;;;;6.20;4.40;;;6.60;99.90;;;;;;4919446;29;20115;-84
2022/09/29 00:36:13;;;;;;;7.63;4.97;;;6.60;99.90;;;;;;4919418;29;20055;-84
2022/09/29 00:38:40;;;;;;;8.60;4.80;;;6.70;99.90;;;;;;4936111;29;20114;-84
2022/09/29 00:41:07;;;;;;;11.55;4.72;;;6.60;99.90;;;;;;4936214;29;20055;-83
2022/09/29 00:44:02;;;;;;;15.38;5.20;;;6.70;99.90;;;;;;4936213;29;20043;-83
2022/09/29 00:46:34;;;;;;;9.05;5.53;;;6.80;99.90;;;;;;4921492;29;20103;-83
2022/09/29 00:49:10;;;;;;;6.15;4.45;;;6.70;99.90;;;;;;4939714;29;20052;-83
2022/09/29 00:51:39;;;;;;;5.82;4.60;;;6.70;99.90;;;;;;4939882;29;20051;-84
2022/09/29 00:54:06;;;;;;;6.20;4.78;;;6.70;99.90;;;;;;4939551;29;20407;-84
2022/09/29 00:56:35;;;;;;;11.13;5.03;;;6.70;99.90;;;;;;4922668;29;20044;-83
2022/09/29 00:59:07;;;;;;;39.30;5.88;;;6.60;99.90;;;;;;4939371;29;20463;-84
2022/09/29 01:01:33;;;;;;;26.02;5.93;;;6.70;99.90;;;;;;4922359;29;20054;-84
2022/09/29 01:04:05;;;;;;;10.77;5.40;;;6.60;99.90;;;;;;4939515;29;20055;-83
2022/09/29 01:06:46;;;;;;;31.10;7.95;;;6.60;99.90;;;;;;4939445;29;20450;-84
2022/09/29 01:09:18;;;;;;;28.30;7.07;;;6.60;99.90;;;;;;4939522;29;20039;-84
2022/09/29 01:11:44;;;;;;;11.02;5.90;;;6.70;99.90;;;;;;4939374;29;20048;-83
2022/09/29 01:14:10;;;;;;;17.40;5.88;;;6.70;99.90;;;;;;4939427;29;20087;-83
2022/09/29 01:16:40;;;;;;;7.70;5.60;;;6.70;99.90;;;;;;4922117;29;20044;-84
2022/09/29 01:19:17;;;;;;;6.85;6.03;;;6.70;99.90;;;;;;4939265;29;20492;-84
2022/09/29 01:21:58;;;;;;;12.07;6.97;;;6.60;99.90;;;;;;4922674;29;20051;-83
2022/09/29 01:24:45;;;;;;;8.27;6.93;;;6.60;99.90;;;;;;4939039;29;20440;-83
2022/09/29 01:27:55;;;;;;;8.00;6.55;;;6.80;99.90;;;;;;4939043;29;20511;-84
2022/09/29 01:30:59;;;;;;;8.85;7.22;;;6.80;99.90;;;;;;4919361;29;20058;-83
2022/09/29 01:33:49;;;;;;;9.63;7.60;;;6.80;99.90;;;;;;4899596;29;20059;-83
2022/09/29 01:36:54;;;;;;;10.90;8.00;;;6.90;99.90;;;;;;4922240;29;20044;-83
2022/09/29 01:39:36;;;;;;;9.60;7.45;;;6.90;99.90;;;;;;4922225;29;20055;-83
2022/09/29 01:42:11;;;;;;;10.75;7.32;;;6.90;99.90;;;;;;4921846;29;20051;-83
2022/09/29 01:44:49;;;;;;;9.20;7.07;;;6.90;99.90;;;;;;4921825;29;20381;-83
2022/09/29 01:47:26;;;;;;;9.80;7.35;;;7.00;99.90;;;;;;4938838;29;20046;-83
2022/09/29 01:50:11;;;;;;;8.88;6.90;;;6.90;99.90;;;;;;4938807;29;20043;-83
2022/09/29 01:52:45;;;;;;;8.35;6.43;;;6.90;99.90;;;;;;4938787;29;20051;-83
2022/09/29 01:55:15;;;;;;;8.05;6.43;;;6.90;99.90;;;;;;4921798;29;20070;-83
2022/09/29 01:57:47;;;;;;;9.27;7.22;;;6.90;99.90;;;;;;4937815;29;20491;-83
2022/09/29 02:00:15;;;;;;;10.48;8.32;;;6.90;99.90;;;;;;4938514;29;20119;-83
2022/09/29 02:02:57;;;;;;;11.90;9.60;;;7.00;99.90;;;;;;4938402;29;20488;-84
2022/09/29 02:05:44;;;;;;;12.55;8.65;;;7.20;99.90;;;;;;4921488;29;20051;-84
2022/09/29 02:08:32;;;;;;;11.68;10.00;;;7.20;99.90;;;;;;4921540;29;20094;-84
2022/09/29 02:11:11;;;;;;;12.77;9.30;;;7.30;99.90;;;;;;4908217;29;20411;-83
2022/09/29 02:13:41;;;;;;;12.27;8.98;;;7.30;99.90;;;;;;4921325;29;20083;-84
2022/09/29 02:16:14;;;;;;;11.20;8.90;;;7.30;99.90;;;;;;4921253;29;20567;-83
2022/09/29 02:18:47;;;;;;;11.63;8.48;;;7.30;99.90;;;;;;4938085;29;20519;-83
2022/09/29 02:21:13;;;;;;;11.32;8.95;;;7.30;99.90;;;;;;4938249;29;20054;-83
2022/09/29 02:23:39;;;;;;;12.50;8.95;;;7.30;99.90;;;;;;4921053;29;20043;-83
2022/09/29 02:26:05;;;;;;;12.70;8.73;;;7.30;99.90;;;;;;4921299;29;20150;-83
2022/09/29 02:28:31;;;;;;;12.07;9.52;;;7.30;99.90;;;;;;4921011;29;20054;-83
2022/09/29 02:30:57;;;;;;;12.73;9.98;;;7.40;99.90;;;;;;4920804;29;20047;-82
2022/09/29 02:33:24;;;;;;;14.05;9.98;;;7.40;99.90;;;;;;4921050;29;20059;-83
2022/09/29 02:36:14;;;;;;;14.05;10.10;;;7.50;99.90;;;;;;4920753;29;20415;-83
2022/09/29 02:38:47;;;;;;;12.40;8.90;;;7.50;99.90;;;;;;4921137;29;20051;-83
2022/09/29 02:41:13;;;;;;;;;;;7.50;99.90;;;;;;4921050;29;20075;-83
2022/09/29 02:43:54;;;;;;;14.18;9.95;;;7.50;99.90;;;;;;4937596;29;20010;-83
2022/09/29 02:46:41;;;;;;;13.30;9.25;;;7.50;99.90;;;;;;4920652;29;20050;-84
2022/09/29 02:49:28;;;;;;;13.25;9.32;;;7.40;99.90;;;;;;4937762;29;20067;-84
2022/09/29 02:52:03;;;;;;;12.38;9.15;;;7.40;99.90;;;;;;4920400;29;20507;-84
2022/09/29 02:54:46;;;;;;;10.73;8.98;;;7.40;99.90;;;;;;4920702;29;20373;-84
2022/09/29 02:57:33;;;;;;;12.00;7.80;;;7.40;99.90;;;;;;4920500;29;20051;-84
2022/09/29 03:00:06;;;;;;;10.55;7.85;;;7.30;99.90;;;;;;4920240;29;20102;-83
2022/09/29 03:02:31;;;;;;;10.45;8.00;;;7.30;99.90;;;;;;4920543;29;20055;-84
2022/09/29 03:04:57;;;;;;;10.98;8.05;;;7.20;99.90;;;;;;4937432;29;20094;-83
2022/09/29 03:07:23;;;;;;;9.63;7.68;;;7.10;99.90;;;;;;4937386;29;20043;-83
2022/09/29 03:09:49;;;;;;;9.50;7.95;;;7.10;99.90;;;;;;4920165;29;20051;-83
2022/09/29 03:12:14;;;;;;;9.80;7.72;;;7.00;99.90;;;;;;4920139;29;20492;-83
2022/09/29 04:37:44;;;;;;;14.52;8.80;;;6.80;99.90;;;;;;5068188;23;20052;-85
2022/09/29 04:40:10;;;;;;;13.23;9.23;;;6.80;99.90;;;;;;4923646;29;20052;-85
2022/09/29 04:42:36;;;;;;;13.27;9.98;;;6.80;99.90;;;;;;4923976;29;20051;-86
2022/09/29 04:45:02;;;;;;;13.13;9.70;;;6.80;99.90;;;;;;4940732;29;20134;-85
2022/09/29 04:47:27;;;;;;;14.45;9.98;;;6.80;99.90;;;;;;4924492;29;20455;-86
2022/09/29 04:49:53;;;;;;;15.00;10.55;;;6.80;99.90;;;;;;4941873;29;20043;-85
2022/09/29 04:52:19;;;;;;;13.25;9.70;;;6.80;99.90;;;;;;4924410;29;20122;-85
2022/09/29 04:54:44;;;;;;;14.48;10.52;;;6.80;99.90;;;;;;4924166;29;20123;-86
2022/09/29 04:57:10;;;;;;;14.60;10.68;;;6.70;99.90;;;;;;4925757;29;20102;-85
2022/09/29 04:59:36;;;;;;;16.13;11.63;;;6.70;99.90;;;;;;4923462;29;20047;-85
2022/09/29 05:02:01;;;;;;;17.15;11.55;;;6.70;99.90;;;;;;4924509;29;20047;-86
2022/09/29 05:04:27;;;;;;;17.30;11.55;;;6.80;99.90;;;;;;4924482;29;20047;-84
2022/09/29 05:06:53;;;;;;;14.63;10.95;;;6.80;99.90;;;;;;4923397;29;20427;-83
2022/09/29 05:09:18;;;;;;;17.67;11.50;;;6.70;99.90;;;;;;4940955;29;20372;-83
2022/09/29 05:11:44;;;;;;;16.15;11.63;;;6.70;99.90;;;;;;4923591;29;20130;-84
2022/09/29 05:14:10;;;;;;;17.30;11.65;;;6.70;99.90;;;;;;4940711;29;20086;-84
2022/09/29 05:16:38;;;;;;;19.17;12.23;;;6.70;99.90;;;;;;4940561;29;20083;-83
2022/09/29 05:19:04;;;;;;;15.90;11.10;;;6.70;99.90;;;;;;4941697;29;20191;-83
2022/09/29 05:21:29;;;;;;;14.35;11.07;;;6.60;99.90;;;;;;4923138;29;20146;-83
2022/09/29 05:23:56;;;;;;;14.32;10.40;;;6.60;99.90;;;;;;4941411;29;20066;-84
2022/09/29 05:26:21;;;;;;;16.10;10.85;;;6.60;99.90;;;;;;4938736;29;20055;-84
2022/09/29 05:28:47;;;;;;;14.55;11.00;;;6.60;99.90;;;;;;4921014;29;20051;-83
2022/09/29 05:31:17;;;;;;;13.52;10.38;;;6.60;99.90;;;;;;4922007;29;20141;-83
2022/09/29 05:33:42;;;;;;;14.75;10.65;;;6.50;99.90;;;;;;4937925;29;20052;-83
2022/09/29 05:36:10;;;;;;;14.63;10.75;;;6.60;99.90;;;;;;4921820;29;20159;-83
2022/09/29 05:38:36;;;;;;;12.35;9.60;;;6.50;99.90;;;;;;4939137;29;20070;-83
2022/09/29 05:41:07;;;;;;;14.13;10.13;;;6.50;99.90;;;;;;4921884;29;20483;-83
2022/09/29 05:43:33;;;;;;;13.55;9.88;;;6.50;99.90;;;;;;4921858;29;20051;-83
2022/09/29 05:46:04;;;;;;;14.88;10.73;;;6.50;99.90;;;;;;4921462;29;20054;-83
2022/09/29 05:48:30;;;;;;;14.68;11.35;;;6.50;99.90;;;;;;4938506;29;20400;-84
2022/09/29 05:50:56;;;;;;;19.77;12.30;;;6.60;99.90;;;;;;4938667;29;20048;-83
2022/09/29 05:53:22;;;;;;;20.92;13.10;;;6.60;99.90;;;;;;4938694;29;20039;-84
2022/09/29 05:55:48;;;;;;;25.77;13.75;;;6.70;99.90;;;;;;4921514;29;20055;-83
2022/09/29 05:58:13;;;;;;;38.25;13.27;;;6.70;99.90;;;;;;4921195;29;20048;-83
2022/09/29 06:00:39;;;;;;;26.52;11.98;;;6.80;99.90;;;;;;4938353;29;20052;-83
2022/09/29 06:03:04;;;;;;;43.17;12.38;;;6.80;99.90;;;;;;4921260;29;20047;-83
2022/09/29 06:05:30;;;;;;;52.22;14.43;;;6.90;99.90;;;;;;4938319;29;20076;-82
2022/09/29 06:07:57;;;;;;;42.78;13.18;;;6.90;99.90;;;;;;4938476;29;20415;-84
2022/09/29 06:10:23;;;;;;;30.73;12.23;;;6.90;99.90;;;;;;4921133;29;20109;-82
2022/09/29 06:12:49;;;;;;;24.30;12.32;;;7.00;99.90;;;;;;4921147;29;20055;-81
2022/09/29 06:15:14;;;;;;;14.20;11.35;;;6.90;99.90;;;;;;4921215;29;20059;-83
2022/09/29 06:17:40;;;;;;;29.13;11.88;;;6.90;99.90;;;;;;4918887;29;20040;-82
2022/09/29 06:20:06;;;;;;;31.58;11.85;;;7.00;99.90;;;;;;4910984;29;20558;-82
2022/09/29 06:22:32;;;;;;;23.65;11.48;;;7.00;99.90;;;;;;4918935;29;20044;-84
2022/09/29 06:24:58;;;;;;;19.33;12.15;;;7.00;99.90;;;;;;4901741;29;20048;-82
2022/09/29 06:27:24;;;;;;;42.25;13.45;;;7.00;99.90;;;;;;4902127;29;20134;-84
2022/09/29 06:29:50;;;;;;;60.72;14.82;;;7.00;99.90;;;;;;4901762;29;20492;-83
2022/09/29 06:32:16;;;;;;;27.17;12.77;;;7.00;99.90;;;;;;4918440;29;20075;-84
2022/09/29 06:37:35;;;;;;;49.65;13.20;;;7.00;99.90;;;;;;4918419;29;20079;-82
2022/09/29 06:40:03;;;;;;;18.45;11.50;;;7.10;99.90;;;;;;4901467;29;20412;-82
2022/09/29 06:42:29;;;;;;;32.28;12.57;;;7.20;99.90;;;;;;4904188;29;20075;-81
2022/09/29 06:44:55;;;;;;;19.83;11.95;;;7.20;99.90;;;;;;4926575;29;20462;-82
2022/09/29 06:47:21;;;;;;;17.75;12.93;;;7.30;99.90;;;;;;4937492;29;20043;-81
2022/09/29 06:49:47;;;;;;;29.92;13.10;;;7.40;99.90;;;;;;4919961;29;20063;-82
2022/09/29 06:52:13;;;;;;;30.58;14.02;;;7.40;99.90;;;;;;4937460;29;20052;-82
2022/09/29 06:54:38;;;;;;;45.63;14.05;;;7.40;99.90;;;;;;4937183;29;20047;-82
2022/09/29 06:57:04;;;;;;;30.60;13.70;;;7.50;99.90;;;;;;4920025;29;20048;-82
2022/09/29 06:59:30;;;;;;;19.92;13.45;;;7.50;99.90;;;;;;4920007;29;20127;-83
2022/09/29 07:01:56;;;;;;;20.27;13.00;;;7.60;99.90;;;;;;4919960;29;20060;-83
2022/09/29 07:04:22;;;;;;;21.88;13.70;;;7.70;99.90;;;;;;4919959;29;20488;-83
2022/09/29 07:06:48;;;;;;;19.98;14.18;;;7.70;99.90;;;;;;4920325;29;20063;-82
2022/09/29 07:09:16;;;;;;;19.55;14.32;;;7.90;99.90;;;;;;4919859;29;20048;-82
2022/09/29 07:11:46;;;;;;;19.38;14.25;;;8.00;99.90;;;;;;4936874;29;20138;-82
2022/09/29 07:14:13;;;;;;;21.50;14.77;;;8.10;99.90;;;;;;4941490;29;20495;-83
2022/09/29 07:16:39;;;;;;;22.90;15.48;;;8.20;99.90;;;;;;4956453;29;20039;-83
2022/09/29 07:19:04;;;;;;;19.98;14.68;;;8.30;99.90;;;;;;4955784;29;20066;-83
2022/09/29 07:21:30;;;;;;;23.20;15.25;;;8.40;99.90;;;;;;4937939;29;20549;-83
2022/09/29 07:23:58;;;;;;;23.92;16.20;;;8.50;99.90;;;;;;4938244;29;20051;-83
2022/09/29 07:26:24;;;;;;;21.92;15.63;;;8.60;99.90;;;;;;4937213;29;20047;-83
2022/09/29 07:28:50;;;;;;;22.50;15.13;;;8.60;99.90;;;;;;4956069;29;20051;-83
2022/09/29 07:31:18;;;;;;;21.45;16.05;;;8.70;99.90;;;;;;4938160;29;20043;-85
2022/09/29 07:33:45;;;;;;;25.20;15.55;;;8.80;99.90;;;;;;4938670;29;20463;-83
2022/09/29 07:36:15;;;;;;;22.67;15.82;;;9.00;99.90;;;;;;4938457;29;20058;-83
2022/09/29 07:38:41;;;;;;;23.08;15.88;;;9.00;99.90;;;;;;4956047;29;20035;-83
2022/09/29 07:41:09;;;;;;;23.55;16.60;;;9.20;99.90;;;;;;4938707;29;20447;-83
2022/09/29 07:43:35;;;;;;;22.80;15.98;;;9.30;99.90;;;;;;4938261;29;20509;-85
2022/09/29 07:46:05;;;;;;;23.60;17.33;;;9.40;99.90;;;;;;4955913;29;20122;-85
2022/09/29 07:48:32;;;;;;;24.17;16.52;;;9.50;99.90;;;;;;4955605;29;20047;-83
2022/09/29 07:51:13;;;;;;;21.13;15.18;;;9.60;99.90;;;;;;4955458;29;20563;-83
2022/09/29 07:53:39;;;;;;;19.67;15.32;;;9.70;99.90;;;;;;4938649;29;20065;-82
2022/09/29 07:56:11;;;;;;;20.67;15.10;;;9.80;99.90;;;;;;4937865;29;20135;-83
2022/09/29 07:58:38;;;;;;;19.88;14.85;;;9.80;99.90;;;;;;4955813;29;20051;-83
2022/09/29 08:01:09;;;;;;;19.17;14.38;;;9.90;99.90;;;;;;4955661;29;20118;-83
2022/09/29 08:03:35;;;;;;;18.02;14.50;;;9.90;99.90;;;;;;4938243;29;20046;-83
2022/09/29 08:06:01;;;;;;;17.70;13.88;;;9.90;99.90;;;;;;4938122;29;20506;-83
2022/09/29 08:08:27;;;;;;;17.88;14.40;;;10.00;99.90;;;;;;4938426;29;20055;-83
2022/09/29 08:11:01;;;;;;;16.83;13.13;;;10.00;99.90;;;;;;4955312;29;20054;-83
2022/09/29 08:13:33;;;;;;;17.38;13.40;;;10.10;99.90;;;;;;4955539;29;20050;-83
2022/09/29 08:16:00;;;;;;;15.00;12.57;;;10.10;99.90;;;;;;4955631;29;20130;-82
2022/09/29 08:18:27;;;;;;;16.27;13.73;;;10.20;99.90;;;;;;4938126;29;20055;-83
2022/09/29 08:20:55;;;;;;;17.83;14.07;;;10.30;99.90;;;;;;4938115;29;20126;-83
2022/09/29 08:23:22;;;;;;;16.27;12.85;;;10.40;99.90;;;;;;4955323;29;20092;-83
2022/09/29 08:25:48;;;;;;;16.77;14.23;;;10.60;99.90;;;;;;4955179;29;20494;-82
2022/09/29 08:28:16;;;;;;;19.63;13.85;;;10.70;99.90;;;;;;4938366;29;20059;-83
2022/09/29 08:30:42;;;;;;;16.55;14.27;;;10.80;99.90;;;;;;4937957;29;20051;-83
2022/09/29 08:33:13;;;;;;;16.77;13.80;;;10.90;99.90;;;;;;4938143;29;20062;-83
2022/09/29 08:35:40;;;;;;;16.60;12.65;;;11.00;99.90;;;;;;4955140;29;20503;-83
2022/09/29 08:38:05;;;;;;;17.42;13.63;;;11.10;99.90;;;;;;4937924;29;20558;-83
2022/09/29 08:40:32;;;;;;;17.25;13.60;;;11.20;99.90;;;;;;4937838;29;20133;-82
2022/09/29 08:43:22;;;;;;;15.60;13.02;;;11.20;99.90;;;;;;4938032;29;20518;-82
2022/09/29 08:46:31;;;;;;;14.88;12.82;;;11.30;99.90;;;;;;4937930;29;20569;-82
2022/09/29 08:49:02;;;;;;;15.13;13.18;;;11.40;99.90;;;;;;4924509;29;20399;-83
2022/09/29 08:51:36;;;;;;;16.13;14.40;;;11.40;99.90;;;;;;4954913;29;20051;-83
2022/09/29 08:54:12;;;;;;;16.33;12.40;;;11.50;99.90;;;;;;4955059;29;20072;-82
2022/09/29 08:56:38;;;;;;;17.48;13.32;;;11.60;99.90;;;;;;4955247;29;20090;-82
2022/09/29 08:59:03;;;;;;;16.95;14.10;;;11.60;99.90;;;;;;4955189;29;20047;-82
2022/09/29 09:01:42;;;;;;;17.10;13.80;;;11.70;99.90;;;;;;4955070;29;20118;-83
2022/09/29 09:04:08;;;;;;;16.67;13.73;;;11.80;99.90;;;;;;4954966;29;20051;-83
2022/09/29 09:07:00;;;;;;;19.77;14.32;;;11.90;99.90;;;;;;4938687;29;20054;-83
2022/09/29 09:09:48;;;;;;;17.60;13.65;;;12.00;99.90;;;;;;4941509;29;20132;-82
2022/09/29 09:12:26;;;;;;;18.90;14.82;;;12.10;99.90;;;;;;4941320;29;20057;-83
2022/09/29 09:15:26;;;;;;;17.08;13.38;;;12.20;99.90;;;;;;4941270;29;20079;-83
2022/09/29 09:18:21;;;;;;;17.27;13.93;;;12.40;99.90;;;;;;4958620;29;20047;-83
2022/09/29 09:21:07;;;;;;;14.80;12.15;;;12.50;99.90;;;;;;4958492;29;20142;-83
2022/09/29 09:23:38;;;;;;;15.40;12.85;;;12.60;99.90;;;;;;4941343;29;20055;-83
2022/09/29 09:26:04;;;;;;;16.52;13.20;;;12.80;99.90;;;;;;4940874;29;20051;-83
2022/09/29 09:28:40;;;;;;;14.25;11.98;;;12.90;99.90;;;;;;4940957;29;20039;-83
2022/09/29 09:31:12;;;;;;;13.52;11.32;;;13.00;99.90;;;;;;4958093;29;20047;-83
2022/09/29 09:33:51;;;;;;;12.45;10.50;;;13.10;99.90;;;;;;4958158;29;20054;-83
2022/09/29 09:36:24;;;;;;;13.13;9.98;;;13.30;99.90;;;;;;4937971;29;20480;-84
2022/09/29 09:39:00;;;;;;;11.00;8.43;;;13.50;99.90;;;;;;4938985;29;20055;-83
2022/09/29 09:41:27;;;;;;;9.48;7.65;;;13.60;99.90;;;;;;4939046;29;20095;-83
2022/09/29 09:44:01;;;;;;;9.45;6.63;;;13.60;99.90;;;;;;4938888;29;20480;-83
2022/09/29 09:46:33;;;;;;;7.82;5.78;;;13.70;99.90;;;;;;4937099;29;20044;-83
2022/09/29 09:49:25;;;;;;;7.73;5.80;;;13.80;99.90;;;;;;4933062;29;20064;-83
2022/09/29 09:52:01;;;;;;;8.18;6.18;;;13.90;99.90;;;;;;4937326;29;20110;-83
2022/09/29 09:54:36;;;;;;;7.35;5.60;;;14.00;99.90;;;;;;4938674;29;20051;-83
2022/09/29 09:57:51;;;;;;;7.57;5.15;;;14.10;99.90;;;;;;4938837;29;20048;-83
2022/09/29 10:00:37;;;;;;;7.57;5.82;;;14.20;99.90;;;;;;4935686;29;20491;-83
2022/09/29 10:03:06;;;;;;;8.43;5.80;;;14.40;99.90;;;;;;4933913;29;20051;-83
2022/09/29 10:05:41;;;;;;;6.97;3.65;;;14.50;99.90;;;;;;4938471;29;20547;-83
2022/09/29 10:08:11;;;;;;;5.45;3.42;;;14.60;99.90;;;;;;4938644;29;20043;-83
2022/09/29 10:10:40;;;;;;;7.18;4.40;;;14.60;99.90;;;;;;4930267;29;20473;-83
2022/09/29 10:13:10;;;;;;;6.50;3.85;;;14.80;99.90;;;;;;4937156;29;20122;-83
2022/09/29 10:15:50;;;;;;;8.18;3.70;;;14.80;99.90;;;;;;4938044;29;20417;-83
2022/09/29 10:18:51;;;;;;;5.82;3.20;;;15.00;99.90;;;;;;4937588;29;20107;-83
2022/09/29 10:21:38;;;;;;;7.05;4.15;;;15.10;99.90;;;;;;4935288;29;20047;-83
2022/09/29 10:24:18;;;;;;;5.68;3.45;;;15.10;99.90;;;;;;4938085;29;20050;-83
2022/09/29 10:26:46;;;;;;;5.57;3.08;;;15.20;99.90;;;;;;4931113;29;20484;-83
2022/09/29 10:29:32;;;;;;;4.80;3.03;;;15.20;99.90;;;;;;4936898;29;20051;-83
2022/09/29 10:32:12;;;;;;;4.57;3.20;;;15.20;99.90;;;;;;4938054;29;20056;-83
2022/09/29 10:34:46;;;;;;;6.72;3.15;;;15.30;99.90;;;;;;4938096;29;20078;-83
2022/09/29 10:37:33;;;;;;;8.82;4.60;;;15.30;99.90;;;;;;4937728;29;20091;-83
2022/09/29 10:40:11;;;;;;;5.40;2.55;;;15.50;99.90;;;;;;4932621;29;20060;-83
2022/09/29 10:42:49;;;;;;;5.72;2.58;;;15.60;99.90;;;;;;4937899;29;20048;-83
2022/09/29 10:45:24;;;;;;;8.70;3.83;;;15.70;99.90;;;;;;4934376;29;20051;-82
2022/09/29 10:47:56;;;;;;;10.30;5.07;;;15.50;99.90;;;;;;4937607;29;20526;-83
2022/09/29 10:50:25;;;;;;;10.38;4.30;;;15.40;99.90;;;;;;4937467;29;20044;-83
2022/09/29 10:52:54;;;;;;;7.03;2.58;;;15.30;99.90;;;;;;4931008;29;20138;-83
2022/09/29 10:55:23;;;;;;;2.42;1.30;;;15.50;99.90;;;;;;4937626;29;20064;-83
2022/09/29 10:57:54;;;;;;;2.10;1.10;;;15.50;99.90;;;;;;4931008;29;20185;-83
2022/09/29 11:00:34;;;;;;;3.60;0.90;;;15.30;99.90;;;;;;4936659;29;20498;-83
2022/09/29 11:03:20;;;;;;;3.05;1.52;;;15.60;99.90;;;;;;4937511;29;20062;-82
2022/09/29 11:06:00;;;;;;;3.40;1.40;;;15.70;99.90;;;;;;4930315;29;20099;-83
2022/09/29 11:08:26;;;;;;;1.98;0.82;;;15.90;99.90;;;;;;4937495;29;20051;-83
2022/09/29 11:11:08;;;;;;;2.25;1.08;;;15.90;99.90;;;;;;4937218;29;20134;-83
2022/09/29 11:13:44;;;;;;;1.73;0.80;;;15.90;99.90;;;;;;4928588;29;20066;-83
2022/09/29 11:16:20;;;;;;;1.98;0.40;;;15.80;99.90;;;;;;4935828;29;20044;-83
2022/09/29 11:18:51;;;;;;;1.38;0.50;;;15.80;99.90;;;;;;4930056;29;20051;-83
2022/09/29 11:21:23;;;;;;;1.52;0.45;;;15.80;99.90;;;;;;4937234;29;20043;-83
2022/09/29 11:24:19;;;;;;;1.73;0.30;;;16.00;99.90;;;;;;4930086;29;20054;-83
2022/09/29 11:26:47;;;;;;;1.60;0.50;;;16.10;99.90;;;;;;4935641;29;20044;-83
2022/09/29 11:29:38;;;;;;;3.47;1.30;;;16.30;99.90;;;;;;4935919;29;20187;-83
2022/09/29 11:32:29;;;;;;;2.22;0.80;;;16.40;99.90;;;;;;4932033;29;20051;-83
2022/09/29 11:35:16;;;;;;;1.45;0.38;;;16.50;99.90;;;;;;4935553;29;20384;-83
2022/09/29 11:38:10;;;;;;;1.50;0.40;;;16.40;99.90;;;;;;4935310;29;20138;-83
2022/09/29 11:40:46;;;;;;;3.35;0.60;;;16.30;99.90;;;;;;4936430;29;20043;-82
2022/09/29 11:43:24;;;;;;;1.75;0.60;;;16.40;99.90;;;;;;4932905;29;20059;-83
2022/09/29 11:46:33;;;;;;;1.23;0.30;;;16.50;99.90;;;;;;4930309;29;20539;-82
2022/09/29 11:49:23;;;;;;;1.13;0.38;;;16.50;99.90;;;;;;4936490;29;20047;-83
2022/09/29 11:52:07;;;;;;;1.45;0.40;;;16.50;99.90;;;;;;4929918;29;20510;-82
2022/09/29 11:54:55;;;;;;;2.15;0.30;;;16.60;99.90;;;;;;4935345;29;20048;-82
2022/09/29 11:57:30;;;;;;;1.83;0.13;;;16.70;99.90;;;;;;4935473;29;20483;-83
2022/09/29 12:00:11;;;;;;;1.63;0.20;;;16.70;99.90;;;;;;4936558;29;20039;-82
2022/09/29 12:02:36;;;;;;;0.65;0.30;;;16.80;99.90;;;;;;4928402;29;20051;-83
2022/09/29 12:05:41;;;;;;;2.28;0.38;;;16.70;99.90;;;;;;4936338;29;20483;-82
2022/09/29 12:08:55;;;;;;;2.05;0.40;;;16.60;99.90;;;;;;4936360;29;20070;-83
2022/09/29 12:12:06;;;;;;;2.13;0.32;;;16.40;99.90;;;;;;4925745;29;20388;-82
2022/09/29 12:14:56;;;;;;;2.45;0.50;;;16.50;99.90;;;;;;4836238;29;20115;-83
2022/09/29 12:17:30;;;;;;;1.30;0.30;;;16.50;99.90;;;;;;4936314;29;20036;-83
2022/09/29 12:20:21;;;;;;;2.40;0.40;;;16.50;99.90;;;;;;4936369;29;20106;-83
2022/09/29 12:22:49;;;;;;;1.65;0.85;;;16.60;99.90;;;;;;4929575;29;20083;-83
2022/09/29 12:25:18;;;;;;;1.88;0.60;;;16.70;99.90;;;;;;4935182;29;20439;-83
2022/09/29 12:27:46;;;;;;;2.25;0.38;;;16.70;99.90;;;;;;4936321;29;20055;-83
2022/09/29 12:30:18;;;;;;;2.67;0.30;;;16.70;99.90;;;;;;4936188;29;20040;-83
2022/09/29 12:32:56;;;;;;;0.85;0.30;;;16.80;99.90;;;;;;4936218;29;20047;-82
2022/09/29 12:36:00;;;;;;;1.00;0.25;;;16.60;99.90;;;;;;4933999;29;20051;-83
2022/09/29 12:38:42;;;;;;;1.98;0.73;;;16.70;99.90;;;;;;4869384;29;20068;-83
2022/09/29 12:41:20;;;;;;;1.95;0.40;;;16.90;99.90;;;;;;4915659;29;20079;-82
2022/09/29 12:43:51;;;;;;;1.30;0.30;;;16.90;99.90;;;;;;4919412;29;20048;-83
2022/09/29 12:46:29;;;;;;;1.52;0.30;;;17.00;99.90;;;;;;4919696;29;20075;-82
2022/09/29 12:49:24;;;;;;;3.03;0.38;;;17.00;99.90;;;;;;4920905;29;20048;-82
2022/09/29 12:51:51;;;;;;;2.55;0.40;;;17.10;99.90;;;;;;4919460;29;20071;-83
2022/09/29 12:54:22;;;;;;;3.03;0.30;;;17.30;99.90;;;;;;4919609;29;20048;-83
2022/09/29 12:56:57;;;;;;;2.60;0.30;;;17.20;99.90;;;;;;4919628;29;20056;-82
2022/09/29 12:59:31;;;;;;;1.17;0.25;;;17.30;99.90;;;;;;4919467;29;20111;-82
2022/09/29 13:01:58;;;;;;;1.98;0.60;;;17.30;99.90;;;;;;4920610;29;20048;-82
2022/09/29 13:04:49;;;;;;;2.65;0.40;;;17.40;99.90;;;;;;4919492;29;20250;-83
2022/09/29 13:07:48;;;;;;;1.58;0.30;;;17.50;99.90;;;;;;4920443;29;20552;-82
2022/09/29 13:10:46;;;;;;;1.40;0.38;;;17.20;99.90;;;;;;4919501;29;20123;-83
2022/09/29 13:13:26;;;;;;;2.80;0.88;;;17.10;99.90;;;;;;4919283;29;20052;-83
2022/09/29 13:16:19;;;;;;;2.60;0.35;;;17.20;99.90;;;;;;4918995;29;20403;-82
2022/09/29 13:19:04;;;;;;;9.40;0.68;;;17.20;99.90;;;;;;4919173;29;20056;-82
2022/09/29 13:21:51;;;;;;;3.20;0.40;;;17.10;99.90;;;;;;4921873;29;20062;-82
2022/09/29 13:24:35;;;;;;;1.20;0.30;;;17.00;99.90;;;;;;4922231;29;20079;-82
2022/09/29 13:27:36;;;;;;;0.95;0.20;;;17.20;99.90;;;;;;4922135;29;20391;-82
2022/09/29 13:30:12;;;;;;;2.00;0.60;;;17.30;99.90;;;;;;4938965;29;20087;-82
2022/09/29 13:32:45;;;;;;;2.95;0.40;;;17.50;99.90;;;;;;4921838;29;20469;-82
2022/09/29 13:35:23;;;;;;;0.85;0.10;;;17.60;99.90;;;;;;4921964;29;20114;-82
2022/09/29 13:38:06;;;;;;;2.28;0.10;;;17.70;99.90;;;;;;4955820;29;20083;-83
2022/09/29 13:40:32;;;;;;;;;;;17.60;99.90;;;;;;4958276;29;20078;-82
2022/09/29 13:43:04;;;;;;;3.53;0.25;;;17.20;99.90;;;;;;4940910;29;20013;-82
2022/09/29 13:45:35;;;;;;;2.30;0.10;;;17.10;99.90;;;;;;4940834;29;20106;-83
2022/09/29 13:48:29;;;;;;;0.90;0.10;;;16.80;99.90;;;;;;4940649;29;20098;-83
2022/09/29 13:50:55;;;;;;;4.40;0.20;;;16.60;99.90;;;;;;4940681;29;20043;-83
2022/09/29 13:53:21;;;;;;;1.45;0.20;;;16.30;99.90;;;;;;4956783;28;20130;-83
2022/09/29 13:56:01;;;;;;;6.53;3.38;;;16.00;99.90;;;;;;4940621;29;20178;-83
2022/09/29 13:58:57;;;;;;;8.43;3.10;;;15.80;99.90;;;;;;4940446;29;20055;-83
2022/09/29 14:01:34;;;;;;;8.27;4.57;;;15.60;99.90;;;;;;4938917;29;20414;-83
2022/09/29 14:04:38;;;;;;;7.43;4.70;;;15.50;99.90;;;;;;4940399;29;20376;-83
2022/09/29 14:07:05;;;;;;;4.65;1.20;;;15.50;99.90;;;;;;4940329;29;20053;-83
2022/09/29 14:09:36;;;;;;;2.92;0.60;;;15.60;99.90;;;;;;4957638;29;20093;-83
2022/09/29 14:12:16;;;;;;;2.38;0.50;;;15.60;99.90;;;;;;4957364;29;20043;-83
2022/09/29 14:14:51;;;;;;;2.80;0.30;;;15.70;99.90;;;;;;4940105;29;20055;-83
2022/09/29 14:17:35;;;;;;;2.35;0.45;;;15.60;99.90;;;;;;4940093;29;20504;-82
2022/09/29 14:20:14;;;;;;;2.72;0.30;;;15.70;99.90;;;;;;4940401;29;20051;-83
2022/09/29 14:22:42;;;;;;;0.50;0.10;;;15.90;99.90;;;;;;4940028;29;20078;-82
2022/09/29 14:25:11;;;;;;;0.20;0.10;;;16.00;99.90;;;;;;4940069;29;20102;-82
2022/09/29 14:27:50;;;;;;;2.45;0.28;;;16.20;99.90;;;;;;4939892;29;20047;-82
2022/09/29 14:30:39;;;;;;;3.53;0.20;;;16.20;99.90;;;;;;4957345;29;20105;-82
2022/09/29 14:33:16;;;;;;;0.82;0.35;;;16.20;99.90;;;;;;4940154;29;20052;-83
2022/09/29 14:36:05;;;;;;;1.30;0.10;;;16.10;99.90;;;;;;4957181;28;20050;-82
2022/09/29 14:38:42;;;;;;;0.82;0.20;;;15.90;99.90;;;;;;4939909;29;20055;-82
2022/09/29 14:41:09;;;;;;;1.48;0.20;;;15.80;99.90;;;;;;4956953;29;20035;-83
2022/09/29 14:43:45;;;;;;;3.13;0.40;;;15.70;99.90;;;;;;4957122;29;20046;-83
2022/09/29 14:52:57;;;;;;;3.80;1.00;;;15.30;99.90;;;;;;4939231;29;20141;-83